sensor_id;sensor_type;location;lat;lon;timestamp;pressure;altitude;pressure_sealevel;temperature;humidity
78409;BME280;67697;50.750;-3.270;2024-03-08T00:00:24;100415.43;;;3.17;100.00
78409;BME280;67697;50.750;-3.270;2024-03-08T00:02:50;100410.60;;;2.87;100.00
78409;BME280;67697;50.750;-3.270;2024-03-08T00:05:16;100406.29;;;3.01;100.00
78409;BME280;67697;50.750;-3.270;2024-03-08T00:07:42;100404.41;;;3.81;100.00
78409;BME280;67697;50.750;-3.270;2024-03-08T00:10:08;100397.69;;;3.32;100.00
78409;BME280;67697;50.750;-3.270;2024-03-08T00:12:32;100401.99;;;3.36;100.00
78409;BME280;67697;50.750;-3.270;2024-03-08T00:14:57;100391.31;;;3.91;100.00
78409;BME280;67697;50.750;-3.270;2024-03-08T00:17:22;100392.36;;;3.22;100.00
78409;BME280;67697;50.750;-3.270;2024-03-08T00:19:48;100384.26;;;2.95;100.00
78409;BME280;67697;50.750;-3.270;2024-03-08T00:22:14;100379.01;;;3.60;100.00
78409;BME280;67697;50.750;-3.270;2024-03-08T00:24:39;100380.94;;;3.68;100.00
78409;BME280;67697;50.750;-3.270;2024-03-08T00:27:04;100376.57;;;3.47;100.00
78409;BME280;67697;50.750;-3.270;2024-03-08T00:29:30;100370.58;;;3.00;100.00
78409;BME280;67697;50.750;-3.270;2024-03-08T00:31:55;100364.39;;;2.93;100.00
78409;BME280;67697;50.750;-3.270;2024-03-08T00:34:20;100354.93;;;3.23;100.00
78409;BME280;67697;50.750;-3.270;2024-03-08T00:36:46;100355.89;;;3.05;100.00
78409;BME280;67697;50.750;-3.270;2024-03-08T00:39:12;100355.31;;;3.05;100.00
78409;BME280;67697;50.750;-3.270;2024-03-08T00:41:36;100359.74;;;2.29;100.00
78409;BME280;67697;50.750;-3.270;2024-03-08T00:44:02;100356.00;;;2.99;100.00
78409;BME280;67697;50.750;-3.270;2024-03-08T00:46:27;100350.22;;;2.73;100.00
78409;BME280;67697;50.750;-3.270;2024-03-08T00:48:53;100350.14;;;2.86;100.00
78409;BME280;67697;50.750;-3.270;2024-03-08T00:51:18;100346.89;;;2.84;100.00
78409;BME280;67697;50.750;-3.270;2024-03-08T00:53:44;100335.72;;;2.53;100.00
78409;BME280;67697;50.750;-3.270;2024-03-08T00:56:10;100338.29;;;3.13;100.00
78409;BME280;67697;50.750;-3.270;2024-03-08T00:58:36;100336.17;;;2.33;100.00
78409;BME280;67697;50.750;-3.270;2024-03-08T01:01:02;100329.43;;;2.63;100.00
78409;BME280;67697;50.750;-3.270;2024-03-08T01:03:26;100327.49;;;2.88;100.00
78409;BME280;67697;50.750;-3.270;2024-03-08T01:05:52;100322.63;;;2.46;100.00
78409;BME280;67697;50.750;-3.270;2024-03-08T01:08:18;100321.71;;;2.50;100.00
78409;BME280;67697;50.750;-3.270;2024-03-08T01:10:43;100320.61;;;2.55;100.00
78409;BME280;67697;50.750;-3.270;2024-03-08T01:13:09;100316.05;;;3.01;100.00
78409;BME280;67697;50.750;-3.270;2024-03-08T01:15:34;100314.83;;;2.72;100.00
78409;BME280;67697;50.750;-3.270;2024-03-08T01:17:59;100316.84;;;2.26;100.00
78409;BME280;67697;50.750;-3.270;2024-03-08T01:20:25;100314.29;;;2.26;100.00
78409;BME280;67697;50.750;-3.270;2024-03-08T01:22:51;100311.92;;;2.64;100.00
78409;BME280;67697;50.750;-3.270;2024-03-08T01:25:16;100309.02;;;2.27;100.00
78409;BME280;67697;50.750;-3.270;2024-03-08T01:27:41;100305.51;;;2.50;100.00
78409;BME280;67697;50.750;-3.270;2024-03-08T01:30:08;100301.91;;;2.98;100.00
78409;BME280;67697;50.750;-3.270;2024-03-08T01:32:32;100296.51;;;3.36;100.00
78409;BME280;67697;50.750;-3.270;2024-03-08T01:34:58;100287.43;;;3.74;100.00
78409;BME280;67697;50.750;-3.270;2024-03-08T01:37:23;100285.54;;;2.40;100.00
78409;BME280;67697;50.750;-3.270;2024-03-08T01:39:49;100280.80;;;2.80;100.00
78409;BME280;67697;50.750;-3.270;2024-03-08T01:42:14;100279.61;;;2.27;100.00
78409;BME280;67697;50.750;-3.270;2024-03-08T01:44:39;100279.18;;;2.43;100.00
78409;BME280;67697;50.750;-3.270;2024-03-08T01:47:05;100267.66;;;2.53;100.00
78409;BME280;67697;50.750;-3.270;2024-03-08T01:49:30;100263.19;;;2.60;100.00
78409;BME280;67697;50.750;-3.270;2024-03-08T01:51:56;100268.80;;;2.30;100.00
78409;BME280;67697;50.750;-3.270;2024-03-08T01:54:21;100267.63;;;2.92;100.00
78409;BME280;67697;50.750;-3.270;2024-03-08T01:56:47;100266.10;;;2.75;100.00
78409;BME280;67697;50.750;-3.270;2024-03-08T01:59:12;100261.35;;;2.19;100.00
78409;BME280;67697;50.750;-3.270;2024-03-08T02:01:37;100258.40;;;2.77;100.00
78409;BME280;67697;50.750;-3.270;2024-03-08T02:04:03;100253.78;;;2.55;100.00
78409;BME280;67697;50.750;-3.270;2024-03-08T02:06:29;100251.23;;;2.23;100.00
78409;BME280;67697;50.750;-3.270;2024-03-08T02:08:53;100248.86;;;2.53;100.00
78409;BME280;67697;50.750;-3.270;2024-03-08T02:11:19;100247.86;;;2.32;100.00
78409;BME280;67697;50.750;-3.270;2024-03-08T02:13:44;100236.88;;;2.40;100.00
78409;BME280;67697;50.750;-3.270;2024-03-08T02:16:10;100229.64;;;3.09;100.00
78409;BME280;67697;50.750;-3.270;2024-03-08T02:18:36;100231.19;;;3.29;100.00
78409;BME280;67697;50.750;-3.270;2024-03-08T02:21:02;100231.27;;;3.36;100.00
78409;BME280;67697;50.750;-3.270;2024-03-08T02:23:27;100229.69;;;3.22;100.00
78409;BME280;67697;50.750;-3.270;2024-03-08T02:25:52;100225.73;;;3.28;100.00
78409;BME280;67697;50.750;-3.270;2024-03-08T02:28:17;100226.71;;;2.44;100.00
78409;BME280;67697;50.750;-3.270;2024-03-08T02:30:43;100214.56;;;2.41;100.00
78409;BME280;67697;50.750;-3.270;2024-03-08T02:33:08;100201.51;;;2.59;100.00
78409;BME280;67697;50.750;-3.270;2024-03-08T02:35:33;100192.33;;;2.75;100.00
78409;BME280;67697;50.750;-3.270;2024-03-08T02:37:59;100176.85;;;2.92;100.00
78409;BME280;67697;50.750;-3.270;2024-03-08T02:40:25;100178.17;;;2.20;100.00
78409;BME280;67697;50.750;-3.270;2024-03-08T02:42:50;100163.10;;;2.78;100.00
78409;BME280;67697;50.750;-3.270;2024-03-08T02:45:16;100159.24;;;2.00;100.00
78409;BME280;67697;50.750;-3.270;2024-03-08T02:47:43;100161.22;;;2.21;100.00
78409;BME280;67697;50.750;-3.270;2024-03-08T02:50:07;100151.13;;;2.37;100.00
78409;BME280;67697;50.750;-3.270;2024-03-08T02:52:32;100143.98;;;2.64;100.00
78409;BME280;67697;50.750;-3.270;2024-03-08T02:54:58;100144.52;;;3.21;100.00
78409;BME280;67697;50.750;-3.270;2024-03-08T02:57:23;100143.82;;;2.31;100.00
78409;BME280;67697;50.750;-3.270;2024-03-08T02:59:49;100142.02;;;2.83;100.00
78409;BME280;67697;50.750;-3.270;2024-03-08T03:02:14;100143.99;;;2.67;100.00
78409;BME280;67697;50.750;-3.270;2024-03-08T03:04:41;100137.89;;;2.79;100.00
78409;BME280;67697;50.750;-3.270;2024-03-08T03:07:05;100144.88;;;1.98;100.00
78409;BME280;67697;50.750;-3.270;2024-03-08T03:09:31;100128.28;;;3.14;100.00
78409;BME280;67697;50.750;-3.270;2024-03-08T03:11:56;100128.69;;;2.67;100.00
78409;BME280;67697;50.750;-3.270;2024-03-08T03:14:22;100126.96;;;2.53;100.00
78409;BME280;67697;50.750;-3.270;2024-03-08T03:16:47;100123.27;;;2.77;100.00
78409;BME280;67697;50.750;-3.270;2024-03-08T03:19:12;100118.87;;;2.31;100.00
78409;BME280;67697;50.750;-3.270;2024-03-08T03:21:37;100114.36;;;3.42;100.00
78409;BME280;67697;50.750;-3.270;2024-03-08T03:24:03;100113.70;;;3.55;100.00
78409;BME280;67697;50.750;-3.270;2024-03-08T03:26:29;100103.74;;;2.83;100.00
78409;BME280;67697;50.750;-3.270;2024-03-08T03:28:54;100100.17;;;2.34;100.00
78409;BME280;67697;50.750;-3.270;2024-03-08T03:31:19;100092.93;;;2.76;100.00
78409;BME280;67697;50.750;-3.270;2024-03-08T03:33:44;100084.31;;;2.59;100.00
78409;BME280;67697;50.750;-3.270;2024-03-08T03:36:10;100081.00;;;2.63;100.00
78409;BME280;67697;50.750;-3.270;2024-03-08T03:38:35;100079.21;;;1.98;100.00
78409;BME280;67697;50.750;-3.270;2024-03-08T03:41:01;100075.04;;;2.87;100.00
78409;BME280;67697;50.750;-3.270;2024-03-08T03:43:27;100069.33;;;2.46;100.00
78409;BME280;67697;50.750;-3.270;2024-03-08T03:45:52;100066.57;;;2.56;100.00
78409;BME280;67697;50.750;-3.270;2024-03-08T03:48:18;100073.68;;;2.17;100.00
78409;BME280;67697;50.750;-3.270;2024-03-08T03:50:44;100071.39;;;2.29;100.00
78409;BME280;67697;50.750;-3.270;2024-03-08T03:53:10;100062.13;;;2.54;100.00
78409;BME280;67697;50.750;-3.270;2024-03-08T03:55:35;100057.35;;;2.35;100.00
78409;BME280;67697;50.750;-3.270;2024-03-08T03:58:00;100046.64;;;2.20;100.00
78409;BME280;67697;50.750;-3.270;2024-03-08T04:00:26;100047.88;;;2.32;100.00
78409;BME280;67697;50.750;-3.270;2024-03-08T04:02:51;100044.46;;;2.49;100.00
78409;BME280;67697;50.750;-3.270;2024-03-08T04:05:17;100039.40;;;2.97;100.00
78409;BME280;67697;50.750;-3.270;2024-03-08T04:07:43;100031.82;;;2.35;100.00
78409;BME280;67697;50.750;-3.270;2024-03-08T04:10:11;100035.71;;;2.45;100.00
78409;BME280;67697;50.750;-3.270;2024-03-08T04:12:33;100032.34;;;2.84;100.00
78409;BME280;67697;50.750;-3.270;2024-03-08T04:14:58;100026.95;;;3.07;100.00
78409;BME280;67697;50.750;-3.270;2024-03-08T04:17:24;100029.46;;;2.22;100.00
78409;BME280;67697;50.750;-3.270;2024-03-08T04:19:49;100029.08;;;3.05;100.00
78409;BME280;67697;50.750;-3.270;2024-03-08T04:22:15;100025.76;;;2.62;100.00
78409;BME280;67697;50.750;-3.270;2024-03-08T04:24:45;100022.10;;;2.39;100.00
78409;BME280;67697;50.750;-3.270;2024-03-08T04:27:06;100021.86;;;2.71;100.00
78409;BME280;67697;50.750;-3.270;2024-03-08T04:29:31;100009.47;;;2.40;100.00
78409;BME280;67697;50.750;-3.270;2024-03-08T04:31:56;100008.89;;;3.31;100.00
78409;BME280;67697;50.750;-3.270;2024-03-08T04:34:22;100009.45;;;2.71;100.00
78409;BME280;67697;50.750;-3.270;2024-03-08T04:36:47;100007.39;;;2.72;100.00
78409;BME280;67697;50.750;-3.270;2024-03-08T04:39:13;100007.42;;;2.86;100.00
78409;BME280;67697;50.750;-3.270;2024-03-08T04:41:39;100001.34;;;2.34;100.00
78409;BME280;67697;50.750;-3.270;2024-03-08T04:44:04;100002.56;;;2.80;100.00
78409;BME280;67697;50.750;-3.270;2024-03-08T04:46:30;100004.58;;;2.43;100.00
78409;BME280;67697;50.750;-3.270;2024-03-08T04:48:55;100005.56;;;2.14;100.00
78409;BME280;67697;50.750;-3.270;2024-03-08T04:51:20;100007.01;;;2.32;100.00
78409;BME280;67697;50.750;-3.270;2024-03-08T04:53:47;100009.59;;;2.61;100.00
78409;BME280;67697;50.750;-3.270;2024-03-08T04:56:11;100008.20;;;2.56;100.00
78409;BME280;67697;50.750;-3.270;2024-03-08T04:58:36;99998.23;;;2.21;100.00
78409;BME280;67697;50.750;-3.270;2024-03-08T05:01:02;100001.34;;;2.48;100.00
78409;BME280;67697;50.750;-3.270;2024-03-08T05:03:27;99999.49;;;2.18;100.00
78409;BME280;67697;50.750;-3.270;2024-03-08T05:05:52;99990.43;;;2.47;100.00
78409;BME280;67697;50.750;-3.270;2024-03-08T05:08:17;99994.38;;;2.32;100.00
78409;BME280;67697;50.750;-3.270;2024-03-08T05:10:43;99989.00;;;2.46;100.00
78409;BME280;67697;50.750;-3.270;2024-03-08T05:13:09;99986.41;;;1.81;100.00
78409;BME280;67697;50.750;-3.270;2024-03-08T05:15:34;99985.03;;;2.28;100.00
78409;BME280;67697;50.750;-3.270;2024-03-08T05:18:00;99983.00;;;2.25;100.00
78409;BME280;67697;50.750;-3.270;2024-03-08T05:20:25;99982.07;;;1.92;100.00
78409;BME280;67697;50.750;-3.270;2024-03-08T05:22:50;99984.54;;;1.73;100.00
78409;BME280;67697;50.750;-3.270;2024-03-08T05:25:16;99983.17;;;1.85;100.00
78409;BME280;67697;50.750;-3.270;2024-03-08T05:27:41;99982.38;;;2.14;100.00
78409;BME280;67697;50.750;-3.270;2024-03-08T05:30:07;99982.72;;;1.90;100.00
78409;BME280;67697;50.750;-3.270;2024-03-08T05:32:33;99987.87;;;2.14;100.00
78409;BME280;67697;50.750;-3.270;2024-03-08T05:34:58;99987.47;;;2.31;100.00
78409;BME280;67697;50.750;-3.270;2024-03-08T05:37:24;99981.20;;;2.71;100.00
78409;BME280;67697;50.750;-3.270;2024-03-08T05:39:49;99978.49;;;3.06;100.00
78409;BME280;67697;50.750;-3.270;2024-03-08T05:42:15;99973.90;;;2.91;100.00
78409;BME280;67697;50.750;-3.270;2024-03-08T05:44:40;99970.57;;;2.36;100.00
78409;BME280;67697;50.750;-3.270;2024-03-08T05:47:06;99969.06;;;2.76;100.00
78409;BME280;67697;50.750;-3.270;2024-03-08T05:49:32;99965.71;;;2.75;100.00
78409;BME280;67697;50.750;-3.270;2024-03-08T05:51:58;99969.05;;;2.52;100.00
78409;BME280;67697;50.750;-3.270;2024-03-08T05:54:23;99964.29;;;2.38;100.00
78409;BME280;67697;50.750;-3.270;2024-03-08T05:56:48;99960.74;;;2.84;100.00
78409;BME280;67697;50.750;-3.270;2024-03-08T05:59:14;99955.27;;;2.30;100.00
78409;BME280;67697;50.750;-3.270;2024-03-08T06:01:39;99951.23;;;2.89;100.00
78409;BME280;67697;50.750;-3.270;2024-03-08T06:04:06;99951.44;;;2.41;100.00
78409;BME280;67697;50.750;-3.270;2024-03-08T06:06:30;99950.63;;;2.35;100.00
78409;BME280;67697;50.750;-3.270;2024-03-08T06:08:56;99951.17;;;2.54;100.00
78409;BME280;67697;50.750;-3.270;2024-03-08T06:11:21;99945.03;;;2.08;100.00
78409;BME280;67697;50.750;-3.270;2024-03-08T06:13:47;99941.31;;;2.42;100.00
78409;BME280;67697;50.750;-3.270;2024-03-08T06:16:12;99939.85;;;2.32;100.00
78409;BME280;67697;50.750;-3.270;2024-03-08T06:18:38;99936.80;;;1.98;100.00
78409;BME280;67697;50.750;-3.270;2024-03-08T06:21:03;99935.57;;;1.90;100.00
78409;BME280;67697;50.750;-3.270;2024-03-08T06:23:28;99934.23;;;2.05;100.00
78409;BME280;67697;50.750;-3.270;2024-03-08T06:25:53;99935.15;;;2.12;100.00
78409;BME280;67697;50.750;-3.270;2024-03-08T06:28:19;99929.59;;;1.90;100.00
78409;BME280;67697;50.750;-3.270;2024-03-08T06:30:44;99930.25;;;1.90;100.00
78409;BME280;67697;50.750;-3.270;2024-03-08T06:33:09;99931.25;;;1.71;100.00
78409;BME280;67697;50.750;-3.270;2024-03-08T06:35:35;99929.71;;;1.86;100.00
78409;BME280;67697;50.750;-3.270;2024-03-08T06:38:02;99927.51;;;1.95;100.00
78409;BME280;67697;50.750;-3.270;2024-03-08T06:40:26;99924.77;;;2.48;100.00
78409;BME280;67697;50.750;-3.270;2024-03-08T06:42:52;99923.62;;;1.98;100.00
78409;BME280;67697;50.750;-3.270;2024-03-08T06:45:18;99917.43;;;1.89;100.00
78409;BME280;67697;50.750;-3.270;2024-03-08T06:47:42;99908.58;;;2.12;100.00
78409;BME280;67697;50.750;-3.270;2024-03-08T06:50:10;99907.73;;;2.40;100.00
78409;BME280;67697;50.750;-3.270;2024-03-08T06:52:34;99907.03;;;2.12;100.00
78409;BME280;67697;50.750;-3.270;2024-03-08T06:55:05;99902.87;;;2.18;100.00
78409;BME280;67697;50.750;-3.270;2024-03-08T06:57:25;99900.90;;;2.25;100.00
78409;BME280;67697;50.750;-3.270;2024-03-08T06:59:50;99898.74;;;2.35;100.00
78409;BME280;67697;50.750;-3.270;2024-03-08T07:02:15;99898.27;;;1.72;100.00
78409;BME280;67697;50.750;-3.270;2024-03-08T07:04:41;99895.39;;;2.07;100.00
78409;BME280;67697;50.750;-3.270;2024-03-08T07:07:07;99887.81;;;1.91;100.00
78409;BME280;67697;50.750;-3.270;2024-03-08T07:09:32;99883.82;;;0.95;100.00
78409;BME280;67697;50.750;-3.270;2024-03-08T07:12:03;99893.04;;;1.48;100.00
78409;BME280;67697;50.750;-3.270;2024-03-08T07:14:24;99884.53;;;2.18;100.00
78409;BME280;67697;50.750;-3.270;2024-03-08T07:16:49;99886.95;;;1.82;100.00
78409;BME280;67697;50.750;-3.270;2024-03-08T07:19:14;99887.50;;;1.73;100.00
78409;BME280;67697;50.750;-3.270;2024-03-08T07:21:39;99892.05;;;2.18;100.00
78409;BME280;67697;50.750;-3.270;2024-03-08T07:24:05;99894.08;;;2.16;100.00
78409;BME280;67697;50.750;-3.270;2024-03-08T07:26:30;99894.86;;;2.12;100.00
78409;BME280;67697;50.750;-3.270;2024-03-08T07:28:56;99892.32;;;2.03;100.00
78409;BME280;67697;50.750;-3.270;2024-03-08T07:31:22;99897.66;;;2.25;100.00
78409;BME280;67697;50.750;-3.270;2024-03-08T07:33:47;99889.38;;;2.13;100.00
78409;BME280;67697;50.750;-3.270;2024-03-08T07:36:13;99890.00;;;2.32;100.00
78409;BME280;67697;50.750;-3.270;2024-03-08T07:38:38;99896.24;;;1.78;100.00
78409;BME280;67697;50.750;-3.270;2024-03-08T07:41:04;99893.85;;;1.59;100.00
78409;BME280;67697;50.750;-3.270;2024-03-08T07:43:34;99897.94;;;1.82;100.00
78409;BME280;67697;50.750;-3.270;2024-03-08T07:45:54;99900.77;;;2.65;100.00
78409;BME280;67697;50.750;-3.270;2024-03-08T07:48:20;99893.10;;;2.12;100.00
78409;BME280;67697;50.750;-3.270;2024-03-08T07:50:46;99901.04;;;2.05;100.00
78409;BME280;67697;50.750;-3.270;2024-03-08T07:53:12;99896.56;;;2.45;100.00
78409;BME280;67697;50.750;-3.270;2024-03-08T07:55:37;99892.00;;;2.19;100.00
78409;BME280;67697;50.750;-3.270;2024-03-08T07:58:02;99890.15;;;2.62;100.00
78409;BME280;67697;50.750;-3.270;2024-03-08T08:00:28;99887.77;;;3.12;100.00
78409;BME280;67697;50.750;-3.270;2024-03-08T08:02:53;99886.53;;;2.83;100.00
78409;BME280;67697;50.750;-3.270;2024-03-08T08:05:18;99885.26;;;2.82;100.00
78409;BME280;67697;50.750;-3.270;2024-03-08T08:07:45;99887.97;;;2.49;100.00
78409;BME280;67697;50.750;-3.270;2024-03-08T08:10:09;99885.10;;;2.88;100.00
78409;BME280;67697;50.750;-3.270;2024-03-08T08:12:34;99875.20;;;2.65;100.00
78409;BME280;67697;50.750;-3.270;2024-03-08T08:15:00;99879.63;;;2.43;100.00
78409;BME280;67697;50.750;-3.270;2024-03-08T08:17:26;99870.56;;;2.39;100.00
78409;BME280;67697;50.750;-3.270;2024-03-08T08:19:51;99862.03;;;2.43;100.00
78409;BME280;67697;50.750;-3.270;2024-03-08T08:22:16;99859.43;;;1.86;100.00
78409;BME280;67697;50.750;-3.270;2024-03-08T08:24:41;99855.64;;;2.06;100.00
78409;BME280;67697;50.750;-3.270;2024-03-08T08:27:07;99854.94;;;2.17;100.00
78409;BME280;67697;50.750;-3.270;2024-03-08T08:29:32;99851.19;;;2.46;100.00
78409;BME280;67697;50.750;-3.270;2024-03-08T08:31:58;99845.37;;;2.62;100.00
78409;BME280;67697;50.750;-3.270;2024-03-08T08:34:23;99847.31;;;3.17;100.00
78409;BME280;67697;50.750;-3.270;2024-03-08T08:36:48;99843.77;;;2.92;100.00
78409;BME280;67697;50.750;-3.270;2024-03-08T08:39:14;99843.07;;;2.94;100.00
78409;BME280;67697;50.750;-3.270;2024-03-08T08:41:39;99842.79;;;2.46;100.00
78409;BME280;67697;50.750;-3.270;2024-03-08T08:44:05;99849.35;;;2.38;100.00
78409;BME280;67697;50.750;-3.270;2024-03-08T08:46:30;99836.44;;;2.93;100.00
78409;BME280;67697;50.750;-3.270;2024-03-08T08:48:55;99831.60;;;2.52;100.00
78409;BME280;67697;50.750;-3.270;2024-03-08T08:51:20;99836.14;;;3.06;100.00
78409;BME280;67697;50.750;-3.270;2024-03-08T08:53:47;99828.17;;;2.83;100.00
78409;BME280;67697;50.750;-3.270;2024-03-08T08:56:11;99817.72;;;3.47;100.00
78409;BME280;67697;50.750;-3.270;2024-03-08T08:58:37;99814.43;;;3.67;100.00
78409;BME280;67697;50.750;-3.270;2024-03-08T09:01:02;99813.31;;;3.91;100.00
78409;BME280;67697;50.750;-3.270;2024-03-08T09:03:27;99810.36;;;3.13;100.00
78409;BME280;67697;50.750;-3.270;2024-03-08T09:05:53;99805.06;;;3.51;100.00
78409;BME280;67697;50.750;-3.270;2024-03-08T09:08:19;99802.94;;;2.71;100.00
78409;BME280;67697;50.750;-3.270;2024-03-08T09:10:44;99799.55;;;2.66;100.00
78409;BME280;67697;50.750;-3.270;2024-03-08T09:13:10;99790.03;;;3.13;100.00
78409;BME280;67697;50.750;-3.270;2024-03-08T09:15:35;99790.51;;;3.83;100.00
78409;BME280;67697;50.750;-3.270;2024-03-08T09:18:01;99788.55;;;3.64;100.00
78409;BME280;67697;50.750;-3.270;2024-03-08T09:20:26;99780.26;;;3.06;100.00
78409;BME280;67697;50.750;-3.270;2024-03-08T09:22:51;99774.36;;;3.31;100.00
78409;BME280;67697;50.750;-3.270;2024-03-08T09:25:17;99777.76;;;3.03;100.00
78409;BME280;67697;50.750;-3.270;2024-03-08T09:27:42;99775.39;;;3.31;100.00
78409;BME280;67697;50.750;-3.270;2024-03-08T09:30:08;99770.94;;;3.07;100.00
78409;BME280;67697;50.750;-3.270;2024-03-08T09:32:32;99771.08;;;3.88;100.00
78409;BME280;67697;50.750;-3.270;2024-03-08T09:34:58;99764.17;;;3.85;100.00
78409;BME280;67697;50.750;-3.270;2024-03-08T09:37:23;99766.36;;;3.89;100.00
78409;BME280;67697;50.750;-3.270;2024-03-08T09:39:48;99764.28;;;3.97;100.00
78409;BME280;67697;50.750;-3.270;2024-03-08T09:42:15;99761.17;;;4.23;100.00
78409;BME280;67697;50.750;-3.270;2024-03-08T09:44:40;99760.81;;;3.39;100.00
78409;BME280;67697;50.750;-3.270;2024-03-08T09:47:06;99758.35;;;4.48;100.00
78409;BME280;67697;50.750;-3.270;2024-03-08T09:49:31;99760.88;;;3.34;100.00
78409;BME280;67697;50.750;-3.270;2024-03-08T09:51:56;99753.14;;;4.40;100.00
78409;BME280;67697;50.750;-3.270;2024-03-08T09:54:22;99754.21;;;4.13;100.00
78409;BME280;67697;50.750;-3.270;2024-03-08T09:56:47;99755.97;;;4.04;100.00
78409;BME280;67697;50.750;-3.270;2024-03-08T09:59:17;99751.92;;;4.08;100.00
78409;BME280;67697;50.750;-3.270;2024-03-08T10:01:38;99753.39;;;4.04;100.00
78409;BME280;67697;50.750;-3.270;2024-03-08T10:04:04;99749.25;;;3.80;100.00
78409;BME280;67697;50.750;-3.270;2024-03-08T10:06:29;99744.45;;;4.01;100.00
78409;BME280;67697;50.750;-3.270;2024-03-08T10:08:59;99744.61;;;3.65;100.00
78409;BME280;67697;50.750;-3.270;2024-03-08T10:11:20;99740.51;;;4.51;100.00
78409;BME280;67697;50.750;-3.270;2024-03-08T10:13:46;99734.14;;;4.49;100.00
78409;BME280;67697;50.750;-3.270;2024-03-08T10:16:10;99726.15;;;4.71;100.00
78409;BME280;67697;50.750;-3.270;2024-03-08T10:18:41;99725.21;;;4.66;100.00
78409;BME280;67697;50.750;-3.270;2024-03-08T10:21:03;99723.71;;;5.44;100.00
78409;BME280;67697;50.750;-3.270;2024-03-08T10:23:27;99725.23;;;4.13;100.00
78409;BME280;67697;50.750;-3.270;2024-03-08T10:25:52;99716.44;;;4.76;100.00
78409;BME280;67697;50.750;-3.270;2024-03-08T10:28:17;99712.65;;;5.02;100.00
78409;BME280;67697;50.750;-3.270;2024-03-08T10:30:47;99707.59;;;4.41;100.00
78409;BME280;67697;50.750;-3.270;2024-03-08T10:33:07;99695.30;;;5.10;100.00
78409;BME280;67697;50.750;-3.270;2024-03-08T10:35:33;99693.24;;;5.63;100.00
78409;BME280;67697;50.750;-3.270;2024-03-08T10:38:00;99694.70;;;4.89;100.00
78409;BME280;67697;50.750;-3.270;2024-03-08T10:40:25;99692.79;;;5.14;100.00
78409;BME280;67697;50.750;-3.270;2024-03-08T10:42:53;99687.18;;;5.87;100.00
78409;BME280;67697;50.750;-3.270;2024-03-08T10:45:19;99685.44;;;6.03;100.00
78409;BME280;67697;50.750;-3.270;2024-03-08T10:47:41;99685.54;;;5.15;100.00
78409;BME280;67697;50.750;-3.270;2024-03-08T10:50:10;99685.74;;;5.16;100.00
78409;BME280;67697;50.750;-3.270;2024-03-08T10:52:32;99681.25;;;4.41;100.00
78409;BME280;67697;50.750;-3.270;2024-03-08T10:54:57;99684.89;;;6.49;100.00
78409;BME280;67697;50.750;-3.270;2024-03-08T10:57:22;99680.74;;;5.20;100.00
78409;BME280;67697;50.750;-3.270;2024-03-08T10:59:53;99670.57;;;5.11;100.00
78409;BME280;67697;50.750;-3.270;2024-03-08T11:02:14;99668.36;;;5.59;100.00
78409;BME280;67697;50.750;-3.270;2024-03-08T11:04:39;99666.47;;;6.07;100.00
78409;BME280;67697;50.750;-3.270;2024-03-08T11:07:05;99667.20;;;5.04;100.00
78409;BME280;67697;50.750;-3.270;2024-03-08T11:09:32;99669.76;;;5.16;100.00
78409;BME280;67697;50.750;-3.270;2024-03-08T11:16:47;99667.39;;;5.47;100.00
78409;BME280;67697;50.750;-3.270;2024-03-08T11:19:24;99660.95;;;5.77;100.00
78409;BME280;67697;50.750;-3.270;2024-03-08T11:21:38;99662.06;;;5.32;100.00
78409;BME280;67697;50.750;-3.270;2024-03-08T11:24:11;99660.77;;;5.85;100.00
78409;BME280;67697;50.750;-3.270;2024-03-08T11:26:30;99651.44;;;6.20;100.00
78409;BME280;67697;50.750;-3.270;2024-03-08T11:28:55;99648.88;;;7.13;100.00
78409;BME280;67697;50.750;-3.270;2024-03-08T11:31:25;99640.62;;;6.22;100.00
78409;BME280;67697;50.750;-3.270;2024-03-08T11:33:46;99642.74;;;6.01;100.00
78409;BME280;67697;50.750;-3.270;2024-03-08T11:36:11;99632.43;;;6.41;100.00
78409;BME280;67697;50.750;-3.270;2024-03-08T11:38:40;99622.77;;;5.25;100.00
78409;BME280;67697;50.750;-3.270;2024-03-08T11:41:06;99625.60;;;5.97;100.00
78409;BME280;67697;50.750;-3.270;2024-03-08T11:43:26;99613.57;;;6.57;100.00
78409;BME280;67697;50.750;-3.270;2024-03-08T11:45:51;99609.64;;;6.76;100.00
78409;BME280;67697;50.750;-3.270;2024-03-08T11:48:17;99605.46;;;6.69;100.00
78409;BME280;67697;50.750;-3.270;2024-03-08T11:50:42;99598.17;;;7.41;100.00
78409;BME280;67697;50.750;-3.270;2024-03-08T11:53:08;99595.45;;;6.56;100.00
78409;BME280;67697;50.750;-3.270;2024-03-08T11:55:33;99592.46;;;6.12;100.00
78409;BME280;67697;50.750;-3.270;2024-03-08T11:58:04;99588.93;;;6.45;100.00
78409;BME280;67697;50.750;-3.270;2024-03-08T12:00:24;99586.17;;;6.40;100.00
78409;BME280;67697;50.750;-3.270;2024-03-08T12:03:02;99576.70;;;6.42;100.00
78409;BME280;67697;50.750;-3.270;2024-03-08T12:05:15;99577.86;;;7.24;100.00
78409;BME280;67697;50.750;-3.270;2024-03-08T12:07:40;99576.37;;;6.05;100.00
78409;BME280;67697;50.750;-3.270;2024-03-08T12:10:17;99579.74;;;6.68;100.00
78409;BME280;67697;50.750;-3.270;2024-03-08T12:12:32;99573.45;;;6.14;100.00
78409;BME280;67697;50.750;-3.270;2024-03-08T12:14:57;99577.48;;;6.50;100.00
78409;BME280;67697;50.750;-3.270;2024-03-08T12:17:28;99574.06;;;7.31;100.00
78409;BME280;67697;50.750;-3.270;2024-03-08T12:19:48;99567.59;;;5.94;100.00
78409;BME280;67697;50.750;-3.270;2024-03-08T12:22:14;99562.49;;;7.07;100.00
78409;BME280;67697;50.750;-3.270;2024-03-08T12:24:38;99564.14;;;6.38;100.00
78409;BME280;67697;50.750;-3.270;2024-03-08T12:29:29;99577.02;;;5.83;100.00
78409;BME280;67697;50.750;-3.270;2024-03-08T12:32:01;99566.18;;;6.25;100.00
78409;BME280;67697;50.750;-3.270;2024-03-08T12:34:20;99568.04;;;6.40;100.00
78409;BME280;67697;50.750;-3.270;2024-03-08T12:36:47;99566.68;;;6.88;100.00
78409;BME280;67697;50.750;-3.270;2024-03-08T12:39:12;99563.30;;;7.53;100.00
78409;BME280;67697;50.750;-3.270;2024-03-08T12:41:39;99562.60;;;6.95;100.00